sensor_id;sensor_type;location;lat;lon;timestamp;temperature;humidity
13245;DHT22;6689;53.400;12.486;2023-02-26T00:00:12;1.70;99.90
13245;DHT22;6689;53.400;12.486;2023-02-26T00:02:40;1.70;99.90
13245;DHT22;6689;53.400;12.486;2023-02-26T00:05:09;1.70;99.90
13245;DHT22;6689;53.400;12.486;2023-02-26T00:07:36;1.60;99.90
13245;DHT22;6689;53.400;12.486;2023-02-26T00:10:04;1.60;99.90
13245;DHT22;6689;53.400;12.486;2023-02-26T00:12:32;1.60;99.90
13245;DHT22;6689;53.400;12.486;2023-02-26T00:15:00;1.60;99.90
13245;DHT22;6689;53.400;12.486;2023-02-26T00:17:47;1.60;99.90
13245;DHT22;6689;53.400;12.486;2023-02-26T00:20:16;1.60;99.90
13245;DHT22;6689;53.400;12.486;2023-02-26T00:22:44;1.70;99.90
13245;DHT22;6689;53.400;12.486;2023-02-26T00:25:11;1.60;99.90
13245;DHT22;6689;53.400;12.486;2023-02-26T00:27:39;1.60;99.90
13245;DHT22;6689;53.400;12.486;2023-02-26T00:30:09;1.70;99.90
13245;DHT22;6689;53.400;12.486;2023-02-26T00:32:40;1.70;99.90
13245;DHT22;6689;53.400;12.486;2023-02-26T00:35:11;1.70;99.90
13245;DHT22;6689;53.400;12.486;2023-02-26T00:38:00;1.70;99.90
13245;DHT22;6689;53.400;12.486;2023-02-26T00:40:38;1.70;99.90
13245;DHT22;6689;53.400;12.486;2023-02-26T00:43:09;1.70;99.90
13245;DHT22;6689;53.400;12.486;2023-02-26T00:45:42;1.60;99.90
13245;DHT22;6689;53.400;12.486;2023-02-26T00:51:18;1.70;99.90
13245;DHT22;6689;53.400;12.486;2023-02-26T00:53:49;1.60;99.90
13245;DHT22;6689;53.400;12.486;2023-02-26T00:56:19;1.70;99.90
13245;DHT22;6689;53.400;12.486;2023-02-26T00:58:46;1.70;99.90
13245;DHT22;6689;53.400;12.486;2023-02-26T01:01:13;1.70;99.90
13245;DHT22;6689;53.400;12.486;2023-02-26T01:03:41;1.70;99.90
13245;DHT22;6689;53.400;12.486;2023-02-26T01:06:11;1.70;99.90
13245;DHT22;6689;53.400;12.486;2023-02-26T01:08:46;1.70;99.90
13245;DHT22;6689;53.400;12.486;2023-02-26T01:11:16;1.70;99.90
13245;DHT22;6689;53.400;12.486;2023-02-26T01:13:44;1.70;99.90
13245;DHT22;6689;53.400;12.486;2023-02-26T01:16:19;1.80;99.90
13245;DHT22;6689;53.400;12.486;2023-02-26T01:18:51;1.80;99.90
13245;DHT22;6689;53.400;12.486;2023-02-26T01:21:25;1.80;99.90
13245;DHT22;6689;53.400;12.486;2023-02-26T01:23:54;1.70;99.90
13245;DHT22;6689;53.400;12.486;2023-02-26T01:26:23;1.70;99.90
13245;DHT22;6689;53.400;12.486;2023-02-26T01:28:52;1.70;99.90
13245;DHT22;6689;53.400;12.486;2023-02-26T01:31:31;1.70;99.90
13245;DHT22;6689;53.400;12.486;2023-02-26T01:34:03;1.70;99.90
13245;DHT22;6689;53.400;12.486;2023-02-26T01:36:39;1.70;99.90
13245;DHT22;6689;53.400;12.486;2023-02-26T01:39:13;1.80;99.90
13245;DHT22;6689;53.400;12.486;2023-02-26T01:41:44;1.80;99.90
13245;DHT22;6689;53.400;12.486;2023-02-26T01:44:18;1.80;99.90
13245;DHT22;6689;53.400;12.486;2023-02-26T01:47:01;1.80;99.90
13245;DHT22;6689;53.400;12.486;2023-02-26T01:49:31;1.80;99.90
13245;DHT22;6689;53.400;12.486;2023-02-26T01:52:00;1.80;99.90
13245;DHT22;6689;53.400;12.486;2023-02-26T01:54:29;1.80;99.90
13245;DHT22;6689;53.400;12.486;2023-02-26T01:57:01;1.80;99.90
13245;DHT22;6689;53.400;12.486;2023-02-26T01:59:30;1.80;99.90
13245;DHT22;6689;53.400;12.486;2023-02-26T02:01:59;1.80;99.90
13245;DHT22;6689;53.400;12.486;2023-02-26T02:04:29;1.80;99.90
13245;DHT22;6689;53.400;12.486;2023-02-26T02:06:59;1.80;99.90
13245;DHT22;6689;53.400;12.486;2023-02-26T02:09:26;1.80;99.90
13245;DHT22;6689;53.400;12.486;2023-02-26T02:12:09;1.90;99.90
13245;DHT22;6689;53.400;12.486;2023-02-26T02:14:45;1.80;99.90
13245;DHT22;6689;53.400;12.486;2023-02-26T02:17:26;1.80;99.90
13245;DHT22;6689;53.400;12.486;2023-02-26T02:20:26;1.80;99.90
13245;DHT22;6689;53.400;12.486;2023-02-26T02:23:08;1.80;99.90
13245;DHT22;6689;53.400;12.486;2023-02-26T02:26:22;1.80;99.90
13245;DHT22;6689;53.400;12.486;2023-02-26T02:32:03;1.70;99.90
13245;DHT22;6689;53.400;12.486;2023-02-26T02:34:36;1.70;99.90
13245;DHT22;6689;53.400;12.486;2023-02-26T02:37:07;1.70;99.90
13245;DHT22;6689;53.400;12.486;2023-02-26T02:39:42;1.70;99.90
13245;DHT22;6689;53.400;12.486;2023-02-26T02:42:22;1.70;99.90
13245;DHT22;6689;53.400;12.486;2023-02-26T02:44:54;1.70;99.90
13245;DHT22;6689;53.400;12.486;2023-02-26T02:47:25;1.70;99.90
13245;DHT22;6689;53.400;12.486;2023-02-26T02:49:59;1.80;99.90
13245;DHT22;6689;53.400;12.486;2023-02-26T02:52:34;1.70;99.90
13245;DHT22;6689;53.400;12.486;2023-02-26T02:55:05;1.80;99.90
13245;DHT22;6689;53.400;12.486;2023-02-26T02:57:37;1.80;99.90
13245;DHT22;6689;53.400;12.486;2023-02-26T03:00:09;1.70;99.90
13245;DHT22;6689;53.400;12.486;2023-02-26T03:02:44;1.70;99.90
13245;DHT22;6689;53.400;12.486;2023-02-26T03:05:14;1.70;99.90
13245;DHT22;6689;53.400;12.486;2023-02-26T03:07:46;1.80;99.90
13245;DHT22;6689;53.400;12.486;2023-02-26T03:10:14;1.80;99.90
13245;DHT22;6689;53.400;12.486;2023-02-26T03:12:42;1.80;99.90
13245;DHT22;6689;53.400;12.486;2023-02-26T03:15:10;1.80;99.90
13245;DHT22;6689;53.400;12.486;2023-02-26T03:17:47;1.80;99.90
13245;DHT22;6689;53.400;12.486;2023-02-26T03:20:20;1.80;99.90
13245;DHT22;6689;53.400;12.486;2023-02-26T03:23:01;1.90;99.90
13245;DHT22;6689;53.400;12.486;2023-02-26T03:25:37;1.90;99.90
13245;DHT22;6689;53.400;12.486;2023-02-26T03:31:28;1.90;99.90
13245;DHT22;6689;53.400;12.486;2023-02-26T03:34:00;1.90;99.90
13245;DHT22;6689;53.400;12.486;2023-02-26T03:36:31;1.70;99.90
13245;DHT22;6689;53.400;12.486;2023-02-26T03:39:04;1.90;99.90
13245;DHT22;6689;53.400;12.486;2023-02-26T03:41:37;1.80;99.90
13245;DHT22;6689;53.400;12.486;2023-02-26T03:44:08;1.80;99.90
13245;DHT22;6689;53.400;12.486;2023-02-26T03:46:41;1.80;99.90
13245;DHT22;6689;53.400;12.486;2023-02-26T03:49:13;1.80;99.90
13245;DHT22;6689;53.400;12.486;2023-02-26T03:51:43;1.80;99.90
13245;DHT22;6689;53.400;12.486;2023-02-26T03:54:15;1.80;99.90
13245;DHT22;6689;53.400;12.486;2023-02-26T03:56:45;1.80;99.90
13245;DHT22;6689;53.400;12.486;2023-02-26T03:59:14;1.80;99.90
13245;DHT22;6689;53.400;12.486;2023-02-26T04:01:46;1.80;99.90
13245;DHT22;6689;53.400;12.486;2023-02-26T04:04:19;1.80;99.90
13245;DHT22;6689;53.400;12.486;2023-02-26T04:06:49;1.80;99.90
13245;DHT22;6689;53.400;12.486;2023-02-26T04:09:18;1.80;99.90
13245;DHT22;6689;53.400;12.486;2023-02-26T04:11:46;1.80;99.90
13245;DHT22;6689;53.400;12.486;2023-02-26T04:14:15;1.80;99.90
13245;DHT22;6689;53.400;12.486;2023-02-26T04:16:43;1.70;99.90
13245;DHT22;6689;53.400;12.486;2023-02-26T04:19:11;1.70;99.90
13245;DHT22;6689;53.400;12.486;2023-02-26T04:21:40;1.70;99.90
13245;DHT22;6689;53.400;12.486;2023-02-26T04:24:08;1.70;99.90
13245;DHT22;6689;53.400;12.486;2023-02-26T04:26:35;1.60;99.90
13245;DHT22;6689;53.400;12.486;2023-02-26T04:29:02;1.60;99.90
13245;DHT22;6689;53.400;12.486;2023-02-26T04:31:29;1.60;99.90
13245;DHT22;6689;53.400;12.486;2023-02-26T04:33:57;1.60;99.90
13245;DHT22;6689;53.400;12.486;2023-02-26T04:36:24;1.50;99.90
13245;DHT22;6689;53.400;12.486;2023-02-26T04:38:53;1.50;99.90
13245;DHT22;6689;53.400;12.486;2023-02-26T04:41:20;1.50;99.90
13245;DHT22;6689;53.400;12.486;2023-02-26T04:43:47;1.40;99.90
13245;DHT22;6689;53.400;12.486;2023-02-26T04:46:14;1.40;99.90
13245;DHT22;6689;53.400;12.486;2023-02-26T04:48:42;1.40;99.90
13245;DHT22;6689;53.400;12.486;2023-02-26T04:51:09;1.40;99.90
13245;DHT22;6689;53.400;12.486;2023-02-26T04:53:36;1.40;99.90
13245;DHT22;6689;53.400;12.486;2023-02-26T04:56:05;1.30;99.90
13245;DHT22;6689;53.400;12.486;2023-02-26T04:58:33;1.30;99.90
13245;DHT22;6689;53.400;12.486;2023-02-26T05:01:00;1.30;99.90
13245;DHT22;6689;53.400;12.486;2023-02-26T05:03:28;1.20;99.90
13245;DHT22;6689;53.400;12.486;2023-02-26T05:05:55;1.20;99.90
13245;DHT22;6689;53.400;12.486;2023-02-26T05:08:23;1.20;99.90
13245;DHT22;6689;53.400;12.486;2023-02-26T05:10:51;1.10;99.90
13245;DHT22;6689;53.400;12.486;2023-02-26T05:13:20;1.20;99.90
13245;DHT22;6689;53.400;12.486;2023-02-26T05:15:47;1.10;99.90
13245;DHT22;6689;53.400;12.486;2023-02-26T05:18:15;1.10;99.90
13245;DHT22;6689;53.400;12.486;2023-02-26T05:20:42;1.10;99.90
13245;DHT22;6689;53.400;12.486;2023-02-26T05:23:09;1.00;99.90
13245;DHT22;6689;53.400;12.486;2023-02-26T05:25:37;1.00;99.90
13245;DHT22;6689;53.400;12.486;2023-02-26T05:28:04;1.00;99.90
13245;DHT22;6689;53.400;12.486;2023-02-26T05:30:33;1.00;99.90
13245;DHT22;6689;53.400;12.486;2023-02-26T05:33:00;1.00;99.90
13245;DHT22;6689;53.400;12.486;2023-02-26T05:35:27;1.00;99.90
13245;DHT22;6689;53.400;12.486;2023-02-26T05:37:54;1.00;99.90
13245;DHT22;6689;53.400;12.486;2023-02-26T05:40:22;1.00;99.90
13245;DHT22;6689;53.400;12.486;2023-02-26T05:42:50;1.00;99.90
13245;DHT22;6689;53.400;12.486;2023-02-26T05:45:18;0.90;99.90
13245;DHT22;6689;53.400;12.486;2023-02-26T05:47:46;0.90;99.90
13245;DHT22;6689;53.400;12.486;2023-02-26T05:50:14;0.90;99.90
13245;DHT22;6689;53.400;12.486;2023-02-26T05:52:41;0.90;99.90
13245;DHT22;6689;53.400;12.486;2023-02-26T05:55:09;0.90;99.90
13245;DHT22;6689;53.400;12.486;2023-02-26T05:57:37;0.90;99.90
13245;DHT22;6689;53.400;12.486;2023-02-26T06:00:06;0.90;99.90
13245;DHT22;6689;53.400;12.486;2023-02-26T06:02:35;0.90;99.90
13245;DHT22;6689;53.400;12.486;2023-02-26T06:05:04;0.80;99.90
13245;DHT22;6689;53.400;12.486;2023-02-26T06:07:32;0.80;99.90
13245;DHT22;6689;53.400;12.486;2023-02-26T06:09:59;0.80;99.90
13245;DHT22;6689;53.400;12.486;2023-02-26T06:12:27;0.80;99.90
13245;DHT22;6689;53.400;12.486;2023-02-26T06:14:54;0.80;99.90
13245;DHT22;6689;53.400;12.486;2023-02-26T06:17:21;0.80;99.90
13245;DHT22;6689;53.400;12.486;2023-02-26T06:19:48;0.80;99.90
13245;DHT22;6689;53.400;12.486;2023-02-26T06:22:18;0.80;99.90
13245;DHT22;6689;53.400;12.486;2023-02-26T06:24:45;0.80;99.90
13245;DHT22;6689;53.400;12.486;2023-02-26T06:27:13;0.80;99.90
13245;DHT22;6689;53.400;12.486;2023-02-26T06:29:40;0.80;99.90
13245;DHT22;6689;53.400;12.486;2023-02-26T06:32:07;0.80;99.90
13245;DHT22;6689;53.400;12.486;2023-02-26T06:34:34;0.80;99.90
13245;DHT22;6689;53.400;12.486;2023-02-26T06:37:02;0.80;99.90
13245;DHT22;6689;53.400;12.486;2023-02-26T06:39:30;0.80;99.90
13245;DHT22;6689;53.400;12.486;2023-02-26T06:41:58;0.80;99.90
13245;DHT22;6689;53.400;12.486;2023-02-26T06:44:25;0.80;99.90
13245;DHT22;6689;53.400;12.486;2023-02-26T06:46:52;0.80;99.90
13245;DHT22;6689;53.400;12.486;2023-02-26T06:49:20;0.80;99.90
13245;DHT22;6689;53.400;12.486;2023-02-26T06:51:47;0.80;99.90
13245;DHT22;6689;53.400;12.486;2023-02-26T06:54:14;0.90;99.90
13245;DHT22;6689;53.400;12.486;2023-02-26T06:56:43;1.00;99.90
13245;DHT22;6689;53.400;12.486;2023-02-26T06:59:10;1.10;99.90
13245;DHT22;6689;53.400;12.486;2023-02-26T07:01:39;1.10;99.90
13245;DHT22;6689;53.400;12.486;2023-02-26T07:04:06;1.20;99.90
13245;DHT22;6689;53.400;12.486;2023-02-26T07:06:33;1.10;99.90
13245;DHT22;6689;53.400;12.486;2023-02-26T07:09:02;1.20;99.90
13245;DHT22;6689;53.400;12.486;2023-02-26T07:11:29;1.20;99.90
13245;DHT22;6689;53.400;12.486;2023-02-26T07:13:59;1.20;99.90
13245;DHT22;6689;53.400;12.486;2023-02-26T07:16:26;1.20;99.90
13245;DHT22;6689;53.400;12.486;2023-02-26T07:18:53;1.20;99.90
13245;DHT22;6689;53.400;12.486;2023-02-26T07:21:20;1.30;99.90
13245;DHT22;6689;53.400;12.486;2023-02-26T07:23:48;1.30;99.90
13245;DHT22;6689;53.400;12.486;2023-02-26T07:26:15;1.30;99.90
13245;DHT22;6689;53.400;12.486;2023-02-26T07:28:42;1.30;99.90
13245;DHT22;6689;53.400;12.486;2023-02-26T07:31:11;1.30;99.90
13245;DHT22;6689;53.400;12.486;2023-02-26T07:33:38;1.40;99.90
13245;DHT22;6689;53.400;12.486;2023-02-26T07:36:06;1.40;99.90
13245;DHT22;6689;53.400;12.486;2023-02-26T07:38:33;1.50;99.90
13245;DHT22;6689;53.400;12.486;2023-02-26T07:41:00;1.70;99.90
13245;DHT22;6689;53.400;12.486;2023-02-26T07:43:27;2.20;99.90
13245;DHT22;6689;53.400;12.486;2023-02-26T07:45:55;2.70;99.90
13245;DHT22;6689;53.400;12.486;2023-02-26T07:48:23;2.80;99.90
13245;DHT22;6689;53.400;12.486;2023-02-26T07:50:51;3.30;99.90
13245;DHT22;6689;53.400;12.486;2023-02-26T07:53:19;3.70;99.90
13245;DHT22;6689;53.400;12.486;2023-02-26T07:55:46;5.60;99.90
13245;DHT22;6689;53.400;12.486;2023-02-26T07:58:14;6.50;99.90
13245;DHT22;6689;53.400;12.486;2023-02-26T08:00:41;8.60;54.20
13245;DHT22;6689;53.400;12.486;2023-02-26T08:03:08;10.80;7.50
13245;DHT22;6689;53.400;12.486;2023-02-26T08:05:39;12.80;1.00
13245;DHT22;6689;53.400;12.486;2023-02-26T08:08:07;13.90;1.00
13245;DHT22;6689;53.400;12.486;2023-02-26T08:10:35;14.90;1.00
13245;DHT22;6689;53.400;12.486;2023-02-26T08:13:04;16.00;1.00
13245;DHT22;6689;53.400;12.486;2023-02-26T08:15:31;16.60;1.00
13245;DHT22;6689;53.400;12.486;2023-02-26T08:17:58;17.00;1.00
13245;DHT22;6689;53.400;12.486;2023-02-26T08:20:25;17.50;1.00
13245;DHT22;6689;53.400;12.486;2023-02-26T08:22:54;18.00;1.00
13245;DHT22;6689;53.400;12.486;2023-02-26T08:25:21;18.10;1.00
13245;DHT22;6689;53.400;12.486;2023-02-26T08:27:48;18.30;1.00
13245;DHT22;6689;53.400;12.486;2023-02-26T08:30:16;18.40;1.00
13245;DHT22;6689;53.400;12.486;2023-02-26T08:32:43;18.90;1.00
13245;DHT22;6689;53.400;12.486;2023-02-26T08:35:11;19.50;1.00
13245;DHT22;6689;53.400;12.486;2023-02-26T08:37:38;20.00;1.00
13245;DHT22;6689;53.400;12.486;2023-02-26T08:40:08;20.50;1.00
13245;DHT22;6689;53.400;12.486;2023-02-26T08:42:36;20.60;1.00
13245;DHT22;6689;53.400;12.486;2023-02-26T08:45:05;20.60;1.00
13245;DHT22;6689;53.400;12.486;2023-02-26T08:47:32;20.20;1.00
13245;DHT22;6689;53.400;12.486;2023-02-26T08:50:00;20.20;1.00
13245;DHT22;6689;53.400;12.486;2023-02-26T08:52:28;19.10;1.00
13245;DHT22;6689;53.400;12.486;2023-02-26T08:54:55;16.00;1.00
13245;DHT22;6689;53.400;12.486;2023-02-26T08:57:25;12.30;1.00
13245;DHT22;6689;53.400;12.486;2023-02-26T08:59:52;10.30;1.00
13245;DHT22;6689;53.400;12.486;2023-02-26T09:02:19;8.70;1.00
13245;DHT22;6689;53.400;12.486;2023-02-26T09:04:47;7.60;1.00
13245;DHT22;6689;53.400;12.486;2023-02-26T09:07:14;6.90;1.00
13245;DHT22;6689;53.400;12.486;2023-02-26T09:09:41;6.30;1.00
13245;DHT22;6689;53.400;12.486;2023-02-26T09:12:09;5.80;1.00
13245;DHT22;6689;53.400;12.486;2023-02-26T09:14:37;5.60;7.10
13245;DHT22;6689;53.400;12.486;2023-02-26T09:17:08;5.40;1.00
13245;DHT22;6689;53.400;12.486;2023-02-26T09:19:35;5.20;14.90
13245;DHT22;6689;53.400;12.486;2023-02-26T09:22:02;5.00;9.90
13245;DHT22;6689;53.400;12.486;2023-02-26T09:24:30;4.80;20.80
13245;DHT22;6689;53.400;12.486;2023-02-26T09:26:57;4.80;32.70
13245;DHT22;6689;53.400;12.486;2023-02-26T09:29:25;4.70;32.90
13245;DHT22;6689;53.400;12.486;2023-02-26T09:31:54;4.70;30.40
13245;DHT22;6689;53.400;12.486;2023-02-26T09:34:22;4.70;28.90
13245;DHT22;6689;53.400;12.486;2023-02-26T09:36:52;4.70;28.00
13245;DHT22;6689;53.400;12.486;2023-02-26T09:39:19;4.70;23.90
13245;DHT22;6689;53.400;12.486;2023-02-26T09:41:52;4.60;23.40
13245;DHT22;6689;53.400;12.486;2023-02-26T09:44:22;4.60;27.50
13245;DHT22;6689;53.400;12.486;2023-02-26T09:47:08;4.50;35.20
13245;DHT22;6689;53.400;12.486;2023-02-26T09:49:47;4.70;23.90
13245;DHT22;6689;53.400;12.486;2023-02-26T09:52:20;4.70;28.80
13245;DHT22;6689;53.400;12.486;2023-02-26T09:54:51;4.70;20.00
13245;DHT22;6689;53.400;12.486;2023-02-26T09:57:30;4.60;17.90
13245;DHT22;6689;53.400;12.486;2023-02-26T09:59:58;4.70;20.40
13245;DHT22;6689;53.400;12.486;2023-02-26T10:02:36;4.70;22.20
13245;DHT22;6689;53.400;12.486;2023-02-26T10:05:15;4.70;12.90
13245;DHT22;6689;53.400;12.486;2023-02-26T10:07:49;4.70;16.50
13245;DHT22;6689;53.400;12.486;2023-02-26T10:10:21;4.70;22.10
13245;DHT22;6689;53.400;12.486;2023-02-26T10:12:52;4.80;9.40
13245;DHT22;6689;53.400;12.486;2023-02-26T10:15:22;4.80;16.10
13245;DHT22;6689;53.400;12.486;2023-02-26T10:18:05;4.80;17.90
13245;DHT22;6689;53.400;12.486;2023-02-26T10:20:40;4.90;16.00
13245;DHT22;6689;53.400;12.486;2023-02-26T10:23:16;5.00;22.90
13245;DHT22;6689;53.400;12.486;2023-02-26T10:25:45;5.10;12.00
13245;DHT22;6689;53.400;12.486;2023-02-26T10:28:34;5.20;7.90
13245;DHT22;6689;53.400;12.486;2023-02-26T10:31:08;5.30;1.00
13245;DHT22;6689;53.400;12.486;2023-02-26T10:33:52;5.20;8.20
13245;DHT22;6689;53.400;12.486;2023-02-26T10:36:24;5.30;1.00
13245;DHT22;6689;53.400;12.486;2023-02-26T10:38:57;5.40;1.00
13245;DHT22;6689;53.400;12.486;2023-02-26T10:41:30;5.30;1.00
13245;DHT22;6689;53.400;12.486;2023-02-26T10:44:03;5.40;1.00
13245;DHT22;6689;53.400;12.486;2023-02-26T10:46:39;5.50;5.90
13245;DHT22;6689;53.400;12.486;2023-02-26T10:49:26;5.50;1.00
13245;DHT22;6689;53.400;12.486;2023-02-26T10:51:57;5.50;1.00
13245;DHT22;6689;53.400;12.486;2023-02-26T10:54:30;5.60;1.00
13245;DHT22;6689;53.400;12.486;2023-02-26T10:57:01;5.60;1.00
13245;DHT22;6689;53.400;12.486;2023-02-26T10:59:29;5.70;1.00
13245;DHT22;6689;53.400;12.486;2023-02-26T11:01:57;5.70;1.00
13245;DHT22;6689;53.400;12.486;2023-02-26T11:04:27;5.80;1.00
13245;DHT22;6689;53.400;12.486;2023-02-26T11:06:58;5.80;1.00
13245;DHT22;6689;53.400;12.486;2023-02-26T11:09:30;5.80;1.00
13245;DHT22;6689;53.400;12.486;2023-02-26T11:12:04;5.80;1.00
13245;DHT22;6689;53.400;12.486;2023-02-26T11:14:32;5.90;1.00
13245;DHT22;6689;53.400;12.486;2023-02-26T11:17:05;5.90;1.00
13245;DHT22;6689;53.400;12.486;2023-02-26T11:19:37;5.90;1.00
13245;DHT22;6689;53.400;12.486;2023-02-26T11:22:05;6.00;1.00
13245;DHT22;6689;53.400;12.486;2023-02-26T11:24:36;6.00;1.00
13245;DHT22;6689;53.400;12.486;2023-02-26T11:27:10;5.90;1.00
13245;DHT22;6689;53.400;12.486;2023-02-26T11:29:40;6.00;1.00
13245;DHT22;6689;53.400;12.486;2023-02-26T11:32:16;5.90;1.00
13245;DHT22;6689;53.400;12.486;2023-02-26T11:34:48;6.00;1.00
13245;DHT22;6689;53.400;12.486;2023-02-26T11:37:17;6.00;1.00
13245;DHT22;6689;53.400;12.486;2023-02-26T11:39:46;6.10;1.00
13245;DHT22;6689;53.400;12.486;2023-02-26T11:42:13;6.10;1.00
13245;DHT22;6689;53.400;12.486;2023-02-26T11:44:44;6.10;1.00
13245;DHT22;6689;53.400;12.486;2023-02-26T11:47:14;6.00;1.00
13245;DHT22;6689;53.400;12.486;2023-02-26T11:49:44;5.90;1.00
13245;DHT22;6689;53.400;12.486;2023-02-26T11:52:21;6.00;1.00
13245;DHT22;6689;53.400;12.486;2023-02-26T11:54:50;6.10;1.00
13245;DHT22;6689;53.400;12.486;2023-02-26T11:57:26;6.20;1.00
13245;DHT22;6689;53.400;12.486;2023-02-26T11:59:55;6.30;1.00
13245;DHT22;6689;53.400;12.486;2023-02-26T12:02:25;6.20;1.00
13245;DHT22;6689;53.400;12.486;2023-02-26T12:04:56;6.40;1.00
13245;DHT22;6689;53.400;12.486;2023-02-26T12:07:26;6.30;1.00
13245;DHT22;6689;53.400;12.486;2023-02-26T12:09:54;6.10;1.00
13245;DHT22;6689;53.400;12.486;2023-02-26T12:12:51;6.10;1.00
13245;DHT22;6689;53.400;12.486;2023-02-26T12:15:29;6.10;1.00
13245;DHT22;6689;53.400;12.486;2023-02-26T12:21:15;6.00;1.00
13245;DHT22;6689;53.400;12.486;2023-02-26T12:24:14;6.10;1.00
13245;DHT22;6689;53.400;12.486;2023-02-26T12:26:50;6.10;1.00
13245;DHT22;6689;53.400;12.486;2023-02-26T12:29:25;6.20;1.00
13245;DHT22;6689;53.400;12.486;2023-02-26T12:35:25;6.10;1.00
13245;DHT22;6689;53.400;12.486;2023-02-26T12:38:12;6.00;1.00
13245;DHT22;6689;53.400;12.486;2023-02-26T12:41:11;5.90;1.00
13245;DHT22;6689;53.400;12.486;2023-02-26T12:43:46;5.80;1.00
13245;DHT22;6689;53.400;12.486;2023-02-26T12:46:23;5.80;1.00
13245;DHT22;6689;53.400;12.486;2023-02-26T12:49:04;5.60;5.50
13245;DHT22;6689;53.400;12.486;2023-02-26T12:51:58;6.00;1.00
13245;DHT22;6689;53.400;12.486;2023-02-26T12:54:46;6.00;1.00
13245;DHT22;6689;53.400;12.486;2023-02-26T12:57:49;6.00;1.00
13245;DHT22;6689;53.400;12.486;2023-02-26T13:00:32;5.90;1.00
13245;DHT22;6689;53.400;12.486;2023-02-26T13:03:34;6.00;1.00
13245;DHT22;6689;53.400;12.486;2023-02-26T13:06:29;6.10;1.00
13245;DHT22;6689;53.400;12.486;2023-02-26T13:09:06;6.00;1.00
13245;DHT22;6689;53.400;12.486;2023-02-26T13:11:46;5.90;2.20
13245;DHT22;6689;53.400;12.486;2023-02-26T13:14:40;5.80;12.50
13245;DHT22;6689;53.400;12.486;2023-02-26T13:17:16;5.70;3.70
13245;DHT22;6689;53.400;12.486;2023-02-26T13:19:49;5.60;6.70
13245;DHT22;6689;53.400;12.486;2023-02-26T13:22:20;5.70;6.50
13245;DHT22;6689;53.400;12.486;2023-02-26T13:24:53;5.80;10.50
13245;DHT22;6689;53.400;12.486;2023-02-26T13:27:28;5.80;10.40
13245;DHT22;6689;53.400;12.486;2023-02-26T13:30:09;6.00;9.90
13245;DHT22;6689;53.400;12.486;2023-02-26T13:32:41;6.20;2.90
13245;DHT22;6689;53.400;12.486;2023-02-26T13:35:19;6.20;1.00
13245;DHT22;6689;53.400;12.486;2023-02-26T13:37:49;6.10;1.00
13245;DHT22;6689;53.400;12.486;2023-02-26T13:40:38;6.00;4.10
13245;DHT22;6689;53.400;12.486;2023-02-26T13:43:18;5.80;2.70
13245;DHT22;6689;53.400;12.486;2023-02-26T13:46:04;5.80;6.00
13245;DHT22;6689;53.400;12.486;2023-02-26T13:48:41;5.70;2.20
13245;DHT22;6689;53.400;12.486;2023-02-26T13:51:11;5.60;2.50
13245;DHT22;6689;53.400;12.486;2023-02-26T13:53:51;5.60;2.20
13245;DHT22;6689;53.400;12.486;2023-02-26T13:59:24;5.60;9.20
13245;DHT22;6689;53.400;12.486;2023-02-26T14:01:55;5.80;8.70
13245;DHT22;6689;53.400;12.486;2023-02-26T14:04:25;5.90;1.00
13245;DHT22;6689;53.400;12.486;2023-02-26T14:06:56;5.90;3.20
13245;DHT22;6689;53.400;12.486;2023-02-26T14:09:44;5.90;3.00
13245;DHT22;6689;53.400;12.486;2023-02-26T14:12:33;5.80;9.70
13245;DHT22;6689;53.400;12.486;2023-02-26T14:15:41;5.80;7.10
13245;DHT22;6689;53.400;12.486;2023-02-26T14:18:27;5.80;4.70
13245;DHT22;6689;53.400;12.486;2023-02-26T14:24:00;5.70;1.10
13245;DHT22;6689;53.400;12.486;2023-02-26T14:26:31;5.70;2.20
13245;DHT22;6689;53.400;12.486;2023-02-26T14:29:11;5.70;5.40
13245;DHT22;6689;53.400;12.486;2023-02-26T14:32:11;5.70;2.20
13245;DHT22;6689;53.400;12.486;2023-02-26T14:34:48;5.70;4.40
13245;DHT22;6689;53.400;12.486;2023-02-26T14:37:19;5.70;10.20
13245;DHT22;6689;53.400;12.486;2023-02-26T14:39:53;5.60;7.70
13245;DHT22;6689;53.400;12.486;2023-02-26T14:42:25;5.50;13.00
13245;DHT22;6689;53.400;12.486;2023-02-26T14:45:04;5.50;10.00
13245;DHT22;6689;53.400;12.486;2023-02-26T14:47:33;5.50;12.40
13245;DHT22;6689;53.400;12.486;2023-02-26T14:50:04;5.60;18.70
13245;DHT22;6689;53.400;12.486;2023-02-26T14:55:46;5.50;5.70
13245;DHT22;6689;53.400;12.486;2023-02-26T14:58:35;5.50;1.00
13245;DHT22;6689;53.400;12.486;2023-02-26T15:01:17;5.40;1.00
13245;DHT22;6689;53.400;12.486;2023-02-26T15:04:09;5.30;1.00
13245;DHT22;6689;53.400;12.486;2023-02-26T15:07:08;5.20;1.00
13245;DHT22;6689;53.400;12.486;2023-02-26T15:09:46;5.20;2.30
13245;DHT22;6689;53.400;12.486;2023-02-26T15:12:28;5.10;8.10
13245;DHT22;6689;53.400;12.486;2023-02-26T15:15:23;5.10;7.50
13245;DHT22;6689;53.400;12.486;2023-02-26T15:18:01;5.00;8.40
13245;DHT22;6689;53.400;12.486;2023-02-26T15:20:36;5.00;10.60
13245;DHT22;6689;53.400;12.486;2023-02-26T15:23:40;5.00;9.80
13245;DHT22;6689;53.400;12.486;2023-02-26T15:26:15;5.00;12.40
13245;DHT22;6689;53.400;12.486;2023-02-26T15:28:44;5.00;16.60
13245;DHT22;6689;53.400;12.486;2023-02-26T15:31:12;5.00;5.20
13245;DHT22;6689;53.400;12.486;2023-02-26T15:33:40;5.10;2.80
13245;DHT22;6689;53.400;12.486;2023-02-26T15:36:11;5.10;1.00
13245;DHT22;6689;53.400;12.486;2023-02-26T15:38:47;5.10;2.40
13245;DHT22;6689;53.400;12.486;2023-02-26T15:41:15;5.10;5.30
13245;DHT22;6689;53.400;12.486;2023-02-26T15:43:48;5.00;9.60
13245;DHT22;6689;53.400;12.486;2023-02-26T15:46:18;5.00;10.10
13245;DHT22;6689;53.400;12.486;2023-02-26T15:48:48;5.00;8.80
13245;DHT22;6689;53.400;12.486;2023-02-26T15:51:17;5.00;12.60
13245;DHT22;6689;53.400;12.486;2023-02-26T15:53:52;5.00;14.90
13245;DHT22;6689;53.400;12.486;2023-02-26T15:56:23;4.90;16.90
13245;DHT22;6689;53.400;12.486;2023-02-26T15:58:53;5.00;17.10
13245;DHT22;6689;53.400;12.486;2023-02-26T16:01:22;4.90;13.10
13245;DHT22;6689;53.400;12.486;2023-02-26T16:04:00;4.80;18.40
13245;DHT22;6689;53.400;12.486;2023-02-26T16:06:33;4.80;19.60
13245;DHT22;6689;53.400;12.486;2023-02-26T16:09:03;4.80;19.40
13245;DHT22;6689;53.400;12.486;2023-02-26T16:11:33;4.70;16.00
13245;DHT22;6689;53.400;12.486;2023-02-26T16:14:01;4.70;19.80
13245;DHT22;6689;53.400;12.486;2023-02-26T16:16:37;4.60;21.30
13245;DHT22;6689;53.400;12.486;2023-02-26T16:19:07;4.60;19.10
13245;DHT22;6689;53.400;12.486;2023-02-26T16:21:37;4.60;22.60
13245;DHT22;6689;53.400;12.486;2023-02-26T16:24:11;4.50;27.80
13245;DHT22;6689;53.400;12.486;2023-02-26T16:26:43;4.50;31.70
13245;DHT22;6689;53.400;12.486;2023-02-26T16:29:15;4.50;31.90
13245;DHT22;6689;53.400;12.486;2023-02-26T16:31:47;4.50;32.70
13245;DHT22;6689;53.400;12.486;2023-02-26T16:34:27;4.50;29.80
13245;DHT22;6689;53.400;12.486;2023-02-26T16:36:56;4.40;30.30
13245;DHT22;6689;53.400;12.486;2023-02-26T16:39:30;4.40;38.60
13245;DHT22;6689;53.400;12.486;2023-02-26T16:42:02;4.40;32.50
13245;DHT22;6689;53.400;12.486;2023-02-26T16:44:47;4.30;34.50
13245;DHT22;6689;53.400;12.486;2023-02-26T16:47:15;4.20;38.30